createdAt,value
2022-10-18T00:02:21.097Z,20.81
2022-10-18T00:04:51.508Z,20.76
2022-10-18T00:07:22.051Z,20.32
2022-10-18T00:09:52.438Z,20.76
2022-10-18T00:12:23.261Z,21.46
2022-10-18T00:14:53.796Z,21.66
2022-10-18T00:17:24.508Z,20.43
2022-10-18T00:19:54.968Z,21.14
2022-10-18T00:22:26.570Z,20.04
2022-10-18T00:24:56.882Z,19.79
2022-10-18T00:27:27.521Z,19.89
2022-10-18T00:29:57.062Z,19.83
2022-10-18T00:32:28.346Z,19.53
2022-10-18T00:34:58.605Z,19.70
2022-10-18T00:37:29.680Z,19.63
2022-10-18T00:39:59.735Z,19.38
2022-10-18T00:42:37.394Z,19.50
2022-10-18T00:45:25.371Z,19.79
2022-10-18T00:48:04.406Z,19.96
2022-10-18T00:50:36.540Z,19.61
2022-10-18T00:53:14.007Z,19.89
2022-10-18T00:55:47.095Z,20.43
2022-10-18T00:58:20.957Z,20.50
2022-10-18T01:00:51.017Z,20.82
2022-10-18T01:03:21.311Z,21.50
2022-10-18T01:05:51.844Z,20.92
2022-10-18T01:08:31.429Z,20.95
2022-10-18T01:11:10.555Z,21.20
2022-10-18T01:13:44.018Z,20.46
2022-10-18T01:16:19.773Z,20.30
2022-10-18T01:18:59.535Z,20.09
2022-10-18T01:21:48.277Z,19.74
2022-10-18T01:24:55.916Z,19.60
2022-10-18T01:27:47.679Z,19.57
2022-10-18T01:30:17.854Z,19.38
2022-10-18T01:32:54.391Z,19.30
2022-10-18T01:35:32.605Z,19.33
2022-10-18T01:38:07.852Z,19.42
2022-10-18T01:40:39.863Z,19.48
2022-10-18T01:43:12.010Z,19.34
2022-10-18T01:45:43.289Z,19.75
2022-10-18T01:48:14.586Z,19.28
2022-10-18T01:50:44.646Z,19.42
2022-10-18T01:53:33.081Z,19.56
2022-10-18T01:56:17.530Z,19.88
2022-10-18T01:59:03.707Z,19.82
2022-10-18T02:01:57.987Z,19.70
2022-10-18T02:05:08.524Z,19.74
2022-10-18T02:08:12.164Z,19.79
2022-10-18T02:11:02.403Z,19.47
2022-10-18T02:13:38.836Z,19.82
2022-10-18T02:16:17.890Z,19.75
2022-10-18T02:18:59.404Z,20.23
2022-10-18T02:21:31.110Z,20.49
2022-10-18T02:24:03.885Z,20.77
2022-10-18T02:26:34.279Z,20.87
2022-10-18T02:30:00.191Z,21.02
2022-10-18T02:33:19.534Z,21.51
2022-10-18T02:35:57.909Z,22.68
2022-10-18T02:38:29.027Z,22.75
2022-10-18T02:41:00.030Z,22.81
2022-10-18T02:43:30.071Z,23.40
2022-10-18T02:46:00.669Z,23.48
2022-10-18T02:48:30.259Z,23.25
2022-10-18T02:51:00.626Z,23.31
2022-10-18T02:53:33.291Z,23.70
2022-10-18T02:56:04.419Z,23.55
2022-10-18T02:58:34.553Z,23.36
2022-10-18T03:01:05.059Z,23.55
2022-10-18T03:03:34.699Z,22.17
2022-10-18T03:06:04.388Z,21.62
2022-10-18T03:08:34.870Z,21.56
2022-10-18T03:11:04.735Z,21.06
2022-10-18T03:13:35.592Z,20.96
2022-10-18T03:16:05.768Z,21.57
2022-10-18T03:18:36.321Z,21.93
2022-10-18T03:21:10.142Z,21.27
2022-10-18T03:23:43.027Z,21.80
2022-10-18T03:26:13.049Z,22.04
2022-10-18T03:28:43.868Z,22.60
2022-10-18T03:31:14.013Z,22.63
2022-10-18T03:33:44.626Z,22.75
2022-10-18T03:36:14.524Z,22.95
2022-10-18T03:38:45.032Z,23.18
2022-10-18T03:41:14.546Z,23.05
2022-10-18T03:43:44.248Z,22.91
2022-10-18T03:46:15.128Z,23.37
2022-10-18T03:48:45.164Z,22.84
2022-10-18T03:51:18.779Z,22.41
2022-10-18T03:53:48.785Z,22.73
2022-10-18T03:56:19.409Z,23.15
2022-10-18T03:58:48.882Z,22.38
2022-10-18T04:01:18.702Z,22.00
2022-10-18T04:03:49.342Z,22.78
2022-10-18T04:06:18.827Z,22.86
2022-10-18T04:08:48.516Z,22.81
2022-10-18T04:11:19.104Z,22.86
2022-10-18T04:13:48.711Z,23.31
2022-10-18T04:16:18.778Z,23.17
2022-10-18T04:18:49.357Z,22.79
2022-10-18T04:21:19.348Z,23.18
2022-10-18T04:23:50.631Z,22.76
2022-10-18T04:26:20.947Z,22.91
2022-10-18T04:28:51.443Z,22.80
2022-10-18T04:31:22.136Z,23.07
2022-10-18T04:33:53.291Z,22.97
2022-10-18T04:36:23.555Z,22.50
2022-10-18T04:38:54.002Z,23.00
2022-10-18T04:41:24.044Z,23.27
2022-10-18T04:43:54.691Z,23.18
2022-10-18T04:46:24.853Z,22.99
2022-10-18T04:48:55.258Z,23.62
2022-10-18T04:51:25.523Z,23.61
2022-10-18T04:53:56.138Z,23.42
2022-10-18T04:56:25.783Z,23.77
2022-10-18T04:58:55.558Z,24.07
2022-10-18T05:01:26.231Z,23.85
2022-10-18T05:03:57.271Z,23.59
2022-10-18T05:06:27.889Z,23.84
2022-10-18T05:08:57.885Z,23.70
2022-10-18T05:11:27.818Z,23.51
2022-10-18T05:13:58.267Z,23.22
2022-10-18T05:16:29.976Z,23.58
2022-10-18T05:19:00.540Z,23.39
2022-10-18T05:21:30.263Z,23.24
2022-10-18T05:24:05.581Z,23.42
2022-10-18T05:26:36.303Z,23.68
2022-10-18T05:29:06.405Z,23.60
2022-10-18T05:31:37.077Z,23.51
2022-10-18T05:34:07.044Z,23.60
2022-10-18T05:36:37.597Z,23.53
2022-10-18T05:39:10.415Z,23.29
2022-10-18T05:41:40.862Z,23.83
2022-10-18T05:44:10.917Z,23.50
2022-10-18T05:46:40.759Z,23.41
2022-10-18T05:49:14.675Z,23.95
2022-10-18T05:51:44.910Z,24.07
2022-10-18T05:54:16.130Z,23.79
2022-10-18T05:56:46.332Z,23.80
2022-10-18T05:59:16.824Z,24.30
2022-10-18T06:01:46.842Z,24.00
2022-10-18T06:04:18.999Z,23.75
2022-10-18T06:06:50.184Z,23.34
2022-10-18T06:09:20.505Z,23.58
2022-10-18T06:11:50.613Z,23.39
2022-10-18T06:14:20.965Z,23.21
2022-10-18T06:16:52.047Z,23.20
2022-10-18T06:19:22.503Z,23.65
2022-10-18T06:21:52.742Z,23.58
2022-10-18T06:24:24.190Z,23.81
2022-10-18T06:26:54.388Z,23.74
2022-10-18T06:29:24.808Z,23.76
2022-10-18T06:31:54.890Z,23.12
2022-10-18T06:34:25.483Z,23.64
2022-10-18T06:36:56.495Z,23.71
2022-10-18T06:39:31.790Z,23.38
2022-10-18T06:42:01.870Z,23.25
2022-10-18T06:44:36.612Z,23.53
2022-10-18T06:47:08.348Z,23.30
2022-10-18T06:49:38.663Z,23.02
2022-10-18T06:52:08.802Z,22.96
2022-10-18T06:54:39.085Z,22.83
2022-10-18T06:57:09.159Z,22.86
2022-10-18T06:59:39.701Z,22.73
2022-10-18T07:02:10.894Z,23.09
2022-10-18T07:04:41.209Z,21.33
2022-10-18T07:07:11.464Z,21.02
2022-10-18T07:09:42.133Z,21.45
2022-10-18T07:12:13.500Z,22.25
2022-10-18T07:14:43.814Z,22.35
2022-10-18T07:17:13.876Z,21.29
2022-10-18T07:19:44.498Z,21.83
2022-10-18T07:22:14.597Z,21.43
2022-10-18T07:24:45.237Z,20.87
2022-10-18T07:27:15.323Z,21.32
2022-10-18T07:29:45.966Z,22.46
2022-10-18T07:32:16.903Z,22.48
2022-10-18T07:34:50.762Z,22.40
2022-10-18T07:37:20.966Z,22.39
2022-10-18T07:39:51.612Z,21.59
2022-10-18T07:42:21.844Z,22.10
2022-10-18T07:44:52.530Z,21.69
2022-10-18T07:47:22.603Z,22.93
2022-10-18T07:49:53.177Z,23.06
2022-10-18T07:52:23.251Z,23.22
2022-10-18T07:54:53.825Z,22.62
2022-10-18T07:57:24.692Z,22.66
2022-10-18T07:59:58.081Z,21.36
2022-10-18T08:02:28.324Z,21.43
2022-10-18T08:04:58.627Z,20.65
2022-10-18T08:07:28.868Z,21.10
2022-10-18T08:09:59.294Z,21.87
2022-10-18T08:12:29.490Z,22.18
2022-10-18T08:14:59.835Z,22.86
2022-10-18T08:17:30.228Z,22.87
2022-10-18T08:20:12.044Z,22.58
2022-10-18T08:22:55.443Z,22.48
2022-10-18T08:25:28.242Z,23.16
2022-10-18T08:27:59.271Z,22.73
2022-10-18T08:30:29.715Z,22.51
2022-10-18T08:33:03.596Z,22.53
2022-10-18T08:35:33.678Z,22.11
2022-10-18T08:38:04.454Z,21.61
2022-10-18T08:40:35.988Z,22.37
2022-10-18T08:43:27.731Z,22.00
2022-10-18T08:45:58.199Z,21.64
2022-10-18T08:48:31.919Z,21.73
2022-10-18T08:51:02.778Z,22.08
2022-10-18T08:53:50.475Z,22.28
2022-10-18T08:56:25.283Z,22.03
2022-10-18T08:58:56.078Z,22.80
2022-10-18T09:01:37.689Z,22.49
2022-10-18T09:04:17.084Z,21.99
2022-10-18T09:07:07.146Z,21.87
2022-10-18T09:10:08.301Z,21.77
2022-10-18T09:12:56.184Z,21.32
2022-10-18T09:15:44.988Z,21.35
2022-10-18T09:18:59.193Z,20.38
2022-10-18T09:21:39.349Z,20.32
2022-10-18T09:24:21.671Z,20.37
2022-10-18T09:26:59.485Z,20.34
2022-10-18T09:30:04.347Z,20.50
2022-10-18T09:32:57.820Z,20.46
2022-10-18T09:35:35.262Z,20.50
2022-10-18T09:38:10.985Z,20.86
2022-10-18T09:40:53.815Z,20.41
2022-10-18T09:43:47.884Z,20.02
2022-10-18T09:46:23.516Z,20.54
2022-10-18T09:49:31.028Z,20.93
2022-10-18T09:52:06.389Z,20.60
2022-10-18T09:54:45.363Z,20.98
2022-10-18T09:57:28.516Z,21.31
2022-10-18T10:00:01.941Z,21.69
2022-10-18T10:02:34.563Z,21.87
2022-10-18T10:05:05.496Z,22.00
2022-10-18T10:07:42.641Z,22.33
2022-10-18T10:10:22.605Z,22.23
2022-10-18T10:13:09.470Z,22.02
2022-10-18T10:15:42.425Z,22.33
2022-10-18T10:18:22.968Z,22.26
2022-10-18T10:21:03.199Z,22.41
2022-10-18T10:23:40.841Z,22.47
2022-10-18T10:26:30.030Z,22.49
2022-10-18T10:29:00.486Z,23.15
2022-10-18T10:31:33.191Z,23.41
2022-10-18T10:34:15.651Z,23.05
2022-10-18T10:36:55.950Z,22.77
2022-10-18T10:39:27.417Z,22.13
2022-10-18T10:42:01.862Z,21.75
2022-10-18T10:44:35.533Z,21.97
2022-10-18T10:47:06.750Z,21.94
2022-10-18T10:49:48.418Z,21.81
2022-10-18T10:52:28.120Z,21.76
2022-10-18T10:55:23.595Z,21.83
2022-10-18T10:57:53.086Z,21.33
2022-10-18T11:00:38.657Z,21.29
2022-10-18T11:03:34.537Z,21.15
2022-10-18T11:06:04.672Z,21.43
2022-10-18T11:08:43.249Z,21.64
2022-10-18T11:11:29.009Z,21.93
2022-10-18T11:14:24.272Z,21.86
2022-10-18T11:17:09.962Z,22.45
2022-10-18T11:20:02.613Z,22.45
2022-10-18T11:22:39.584Z,22.11
2022-10-18T11:25:17.583Z,22.50
2022-10-18T11:28:02.177Z,22.31
2022-10-18T11:30:39.156Z,22.73
2022-10-18T11:33:56.261Z,23.03
2022-10-18T11:36:54.586Z,22.76
2022-10-18T11:40:02.546Z,23.09
2022-10-18T11:42:54.016Z,22.98
2022-10-18T11:45:38.644Z,22.72
2022-10-18T11:48:27.821Z,22.79
2022-10-18T11:51:00.550Z,22.48
2022-10-18T11:53:37.325Z,22.42
2022-10-18T11:56:12.668Z,22.63
2022-10-18T11:59:12.351Z,22.84
2022-10-18T12:02:23.822Z,22.35
2022-10-18T12:08:06.819Z,23.20
2022-10-18T12:11:03.452Z,23.65
2022-10-18T12:14:04.899Z,23.58
2022-10-18T12:16:51.331Z,23.93
2022-10-18T12:19:28.219Z,24.08
2022-10-18T12:22:07.686Z,24.03
2022-10-18T12:24:38.805Z,24.63
2022-10-18T12:27:16.466Z,25.12
2022-10-18T12:29:50.384Z,24.49
2022-10-18T12:32:28.220Z,24.59
2022-10-18T12:35:16.475Z,25.17
2022-10-18T12:38:13.562Z,25.18
2022-10-18T12:40:47.801Z,25.26
2022-10-18T12:43:24.852Z,25.16
2022-10-18T12:46:00.537Z,25.17
2022-10-18T12:48:46.690Z,25.25
2022-10-18T12:51:22.961Z,25.22
2022-10-18T12:54:02.130Z,26.27
2022-10-18T12:56:32.042Z,27.26
2022-10-18T12:59:18.277Z,27.30
2022-10-18T13:01:54.405Z,27.17
2022-10-18T13:04:30.942Z,26.48
2022-10-18T13:07:06.549Z,26.05
2022-10-18T13:09:41.910Z,25.88
2022-10-18T13:12:11.891Z,25.41
2022-10-18T13:15:24.175Z,25.37
2022-10-18T13:18:41.867Z,25.52
2022-10-18T13:21:20.706Z,25.89
2022-10-18T13:24:03.223Z,25.50
2022-10-18T13:27:05.118Z,25.71
2022-10-18T13:30:25.134Z,25.39
2022-10-18T13:33:01.816Z,25.27
2022-10-18T13:35:58.679Z,25.28
2022-10-18T13:38:40.067Z,25.57
2022-10-18T13:44:12.852Z,26.21
2022-10-18T13:46:47.212Z,26.23
2022-10-18T13:49:38.351Z,26.09
2022-10-18T13:52:33.117Z,26.82
2022-10-18T13:55:16.654Z,26.81
2022-10-18T13:58:12.387Z,26.66
2022-10-18T14:00:54.793Z,26.32
2022-10-18T14:04:02.477Z,26.97
2022-10-18T14:06:40.217Z,26.97
2022-10-18T14:12:34.008Z,26.48
2022-10-18T14:15:48.257Z,26.06
2022-10-18T14:18:39.556Z,25.89
2022-10-18T14:21:21.616Z,25.98
2022-10-18T14:23:53.614Z,26.53
2022-10-18T14:26:25.185Z,26.76
2022-10-18T14:29:08.021Z,26.84
2022-10-18T14:31:39.598Z,26.80
2022-10-18T14:34:16.956Z,26.78
2022-10-18T14:36:51.335Z,27.11
2022-10-18T14:39:31.782Z,26.81
2022-10-18T14:42:03.410Z,26.74
2022-10-18T14:44:36.021Z,26.91
2022-10-18T14:47:18.009Z,26.94
2022-10-18T14:49:49.233Z,26.88
2022-10-18T14:52:32.926Z,26.56
2022-10-18T14:55:06.005Z,26.81
2022-10-18T14:57:39.101Z,26.56
2022-10-18T15:02:58.808Z,26.75
2022-10-18T15:05:29.408Z,26.39
2022-10-18T15:08:01.219Z,26.10
2022-10-18T15:10:35.343Z,25.91
2022-10-18T15:13:11.106Z,25.33
2022-10-18T15:15:42.562Z,24.98
2022-10-18T15:18:23.981Z,24.73
2022-10-18T15:21:23.449Z,24.74
2022-10-18T15:23:56.075Z,25.01
2022-10-18T15:26:32.178Z,24.30
2022-10-18T15:29:04.600Z,24.26
2022-10-18T15:31:41.066Z,24.46
2022-10-18T15:34:22.915Z,24.35
2022-10-18T15:36:55.598Z,24.06
2022-10-18T15:39:28.935Z,23.80
2022-10-18T15:41:59.266Z,23.94
2022-10-18T15:44:52.395Z,23.67
2022-10-18T15:47:25.484Z,23.44
2022-10-18T15:49:59.533Z,23.44
2022-10-18T15:52:42.295Z,23.53
2022-10-18T15:55:35.092Z,23.44
2022-10-18T15:58:33.369Z,23.29
2022-10-18T16:01:05.568Z,23.15
2022-10-18T16:03:38.107Z,23.07
2022-10-18T16:06:12.313Z,23.15
2022-10-18T16:08:53.197Z,22.93
2022-10-18T16:11:26.467Z,22.95
2022-10-18T16:13:59.530Z,22.81
2022-10-18T16:16:31.383Z,22.59
2022-10-18T16:19:01.598Z,22.69
2022-10-18T16:21:41.016Z,22.47
2022-10-18T16:24:11.087Z,22.65
2022-10-18T16:26:41.659Z,22.80
2022-10-18T16:29:22.707Z,23.51
2022-10-18T16:31:56.528Z,23.23
2022-10-18T16:34:28.290Z,23.13
2022-10-18T16:36:58.911Z,23.15
2022-10-18T16:39:30.362Z,23.08
2022-10-18T16:42:00.820Z,23.09
2022-10-18T16:44:30.291Z,23.17
2022-10-18T16:47:00.018Z,23.32
2022-10-18T16:49:30.507Z,23.79
2022-10-18T16:52:01.190Z,23.39
2022-10-18T16:54:35.107Z,23.08
2022-10-18T16:57:05.782Z,23.01
2022-10-18T16:59:36.744Z,22.75
2022-10-18T17:02:10.205Z,22.88
2022-10-18T17:04:40.976Z,23.29
2022-10-18T17:07:23.433Z,23.08
2022-10-18T17:09:54.064Z,23.14
2022-10-18T17:12:24.317Z,22.72
2022-10-18T17:14:54.910Z,23.06
2022-10-18T17:17:25.483Z,23.34
2022-10-18T17:19:56.947Z,23.15
2022-10-18T17:22:27.170Z,22.90
2022-10-18T17:24:58.689Z,22.85
2022-10-18T17:27:29.210Z,22.20
2022-10-18T17:29:59.830Z,22.23
2022-10-18T17:32:30.977Z,22.41
2022-10-18T17:35:01.733Z,22.27
2022-10-18T17:37:32.480Z,22.15
2022-10-18T17:40:06.377Z,22.08
2022-10-18T17:42:36.666Z,22.23
2022-10-18T17:45:07.951Z,22.41
2022-10-18T17:47:39.160Z,22.44
2022-10-18T17:50:10.109Z,22.44
2022-10-18T17:52:44.874Z,22.60
2022-10-18T17:55:16.764Z,22.50
2022-10-18T17:57:47.168Z,22.59
2022-10-18T18:00:19.112Z,22.54
2022-10-18T18:02:49.405Z,22.49
2022-10-18T18:05:20.183Z,22.33
2022-10-18T18:07:50.621Z,22.42
2022-10-18T18:10:21.222Z,22.62
2022-10-18T18:12:51.403Z,22.83
2022-10-18T18:15:22.014Z,22.75
2022-10-18T18:17:57.201Z,22.78
2022-10-18T18:20:28.489Z,23.33
2022-10-18T18:22:58.674Z,23.28
2022-10-18T18:25:29.275Z,23.45
2022-10-18T18:28:05.251Z,23.95
2022-10-18T18:30:41.387Z,24.12
2022-10-18T18:33:11.564Z,23.74
2022-10-18T18:35:42.271Z,24.12
2022-10-18T18:38:12.636Z,24.08
2022-10-18T18:40:43.602Z,24.92
2022-10-18T18:43:28.412Z,25.00
2022-10-18T18:46:23.198Z,25.17
2022-10-18T18:48:53.358Z,24.89
2022-10-18T18:51:25.846Z,24.29
2022-10-18T18:53:56.171Z,24.34
2022-10-18T18:56:29.969Z,24.24
2022-10-18T18:59:00.601Z,24.51
2022-10-18T19:01:34.915Z,24.78
2022-10-18T19:04:06.330Z,25.01
2022-10-18T19:06:42.083Z,24.99
2022-10-18T19:09:20.702Z,25.24
2022-10-18T19:11:57.064Z,25.04
2022-10-18T19:14:27.211Z,24.54
2022-10-18T19:17:02.777Z,24.93
2022-10-18T19:19:33.367Z,24.80
2022-10-18T19:22:10.711Z,24.50
2022-10-18T19:24:40.751Z,24.39
2022-10-18T19:27:16.087Z,24.00
2022-10-18T19:29:47.177Z,23.97
2022-10-18T19:32:19.730Z,24.25
2022-10-18T19:34:49.807Z,23.94
2022-10-18T19:37:21.152Z,23.63
2022-10-18T19:39:51.146Z,23.95
2022-10-18T19:42:26.071Z,23.53
2022-10-18T19:44:57.790Z,23.57
2022-10-18T19:47:28.674Z,23.85
2022-10-18T19:50:00.851Z,24.13
2022-10-18T19:52:32.227Z,24.10
2022-10-18T19:55:02.835Z,24.33
2022-10-18T19:57:33.639Z,24.08
2022-10-18T20:00:05.486Z,24.06
2022-10-18T20:02:41.274Z,24.43
2022-10-18T20:05:11.782Z,24.17
2022-10-18T20:07:43.721Z,24.01
2022-10-18T20:10:13.722Z,23.58
2022-10-18T20:12:44.367Z,23.22
2022-10-18T20:15:14.389Z,23.31
2022-10-18T20:17:45.008Z,23.43
2022-10-18T20:20:15.110Z,23.43
2022-10-18T20:22:45.740Z,23.23
2022-10-18T20:25:15.761Z,23.38
2022-10-18T20:27:48.767Z,23.41
2022-10-18T20:30:18.899Z,23.56
2022-10-18T20:32:49.885Z,24.33
2022-10-18T20:35:20.347Z,23.73
2022-10-18T20:37:50.918Z,23.48
2022-10-18T20:40:20.765Z,24.30
2022-10-18T20:42:53.809Z,24.16
2022-10-18T20:45:24.785Z,23.82
2022-10-18T20:47:59.396Z,23.40
2022-10-18T20:50:29.464Z,23.49
2022-10-18T20:52:59.958Z,23.43
2022-10-18T20:55:31.623Z,22.97
2022-10-18T20:58:03.553Z,22.61
2022-10-18T21:00:33.282Z,22.43
2022-10-18T21:03:06.671Z,22.02
2022-10-18T21:05:36.785Z,22.04
2022-10-18T21:08:07.308Z,22.23
2022-10-18T21:10:36.799Z,22.17
2022-10-18T21:13:06.693Z,22.24
2022-10-18T21:15:37.163Z,22.18
2022-10-18T21:18:07.762Z,22.23
2022-10-18T21:20:38.838Z,21.81
2022-10-18T21:23:08.880Z,22.35
2022-10-18T21:25:39.229Z,22.13
2022-10-18T21:28:09.648Z,22.38
2022-10-18T21:30:39.895Z,22.48
2022-10-18T21:33:10.430Z,22.25
2022-10-18T21:35:40.531Z,22.04
2022-10-18T21:38:11.099Z,21.84
2022-10-18T21:40:45.716Z,22.20
2022-10-18T21:43:19.229Z,21.96
2022-10-18T21:45:49.566Z,22.48
2022-10-18T21:48:20.155Z,22.17
2022-10-18T21:50:50.378Z,21.93
2022-10-18T21:53:20.906Z,21.72
2022-10-18T21:55:51.313Z,21.61
2022-10-18T21:58:22.068Z,21.46
2022-10-18T22:00:52.423Z,21.47
2022-10-18T22:03:24.490Z,21.48
2022-10-18T22:06:03.618Z,21.88
2022-10-18T22:08:34.080Z,21.87
2022-10-18T22:11:05.766Z,22.06
2022-10-18T22:13:37.233Z,21.95
2022-10-18T22:16:08.624Z,22.25
2022-10-18T22:18:39.334Z,22.27
2022-10-18T22:21:11.229Z,22.92
2022-10-18T22:23:44.674Z,23.36
2022-10-18T22:26:24.158Z,22.32
2022-10-18T22:29:02.766Z,22.56
2022-10-18T22:31:38.580Z,23.12
2022-10-18T22:34:13.575Z,23.48
2022-10-18T22:36:46.971Z,23.68
2022-10-18T22:39:18.107Z,23.90
2022-10-18T22:41:48.745Z,24.34
2022-10-18T22:44:19.156Z,22.76
2022-10-18T22:46:51.244Z,22.37
2022-10-18T22:49:22.821Z,22.08
2022-10-18T22:51:52.871Z,21.86
2022-10-18T22:54:22.737Z,21.82
2022-10-18T22:56:53.172Z,21.60
2022-10-18T22:59:23.204Z,21.53
2022-10-18T23:01:53.664Z,21.34
2022-10-18T23:04:23.660Z,21.36
2022-10-18T23:06:54.184Z,21.18
2022-10-18T23:09:26.342Z,21.05
2022-10-18T23:11:56.792Z,20.84
2022-10-18T23:14:30.173Z,20.92
2022-10-18T23:17:01.050Z,20.98
2022-10-18T23:19:31.144Z,21.16
2022-10-18T23:22:06.984Z,21.12
2022-10-18T23:24:37.151Z,21.20
2022-10-18T23:27:07.678Z,21.39
2022-10-18T23:29:37.260Z,21.40
2022-10-18T23:32:07.779Z,21.40
2022-10-18T23:34:38.258Z,21.50
2022-10-18T23:37:08.259Z,21.88
2022-10-18T23:39:38.631Z,22.42
2022-10-18T23:42:08.618Z,22.33
2022-10-18T23:44:39.059Z,22.76
2022-10-18T23:47:09.545Z,23.19
2022-10-18T23:49:40.001Z,23.40
2022-10-18T23:52:10.486Z,23.39
2022-10-18T23:54:41.118Z,23.81
2022-10-18T23:57:11.296Z,22.93
2022-10-18T23:59:41.641Z,22.72
